Time;durP1;ratioP1;P1;durP2;ratioP2;P2;SDS_P1;SDS_P2;PMS_P1;PMS_P2;Temp;Humidity;BMP_temperature;BMP_pressure;BME280_temperature;BME280_humidity;BME280_pressure;Samples;Min_cycle;Max_cycle;Signal;HPM_P1;HPM_P2
2021/11/01 00:00:40;;;;;;;1.30;0.38;;;12.30;99.90;;;;;;4979702;28;20027;-71
2021/11/01 00:03:07;;;;;;;1.13;0.45;;;12.30;99.90;;;;;;4979695;28;20021;-71
2021/11/01 00:05:35;;;;;;;1.52;0.50;;;12.30;99.90;;;;;;4979291;28;20030;-71
2021/11/01 00:08:02;;;;;;;4.45;1.27;;;12.30;99.90;;;;;;4979726;28;20033;-71
2021/11/01 00:10:29;;;;;;;3.03;0.45;;;12.30;99.90;;;;;;4962244;28;20121;-71
2021/11/01 00:12:57;;;;;;;2.03;0.68;;;12.30;99.90;;;;;;4980108;28;20023;-71
2021/11/01 00:15:25;;;;;;;1.27;0.47;;;12.20;99.90;;;;;;4980122;28;20427;-71
2021/11/01 00:17:52;;;;;;;2.70;0.88;;;12.20;99.90;;;;;;4979937;28;20379;-71
2021/11/01 00:20:21;;;;;;;9.00;2.13;;;12.20;99.90;;;;;;4980271;28;20319;-71
2021/11/01 00:22:49;;;;;;;5.95;0.82;;;12.20;99.90;;;;;;4979742;28;20058;-71
2021/11/01 00:25:17;;;;;;;6.22;1.25;;;12.10;99.90;;;;;;4979851;28;20443;-71
2021/11/01 00:27:44;;;;;;;8.98;1.50;;;12.10;99.90;;;;;;4980070;28;20027;-71
2021/11/01 00:30:12;;;;;;;6.60;0.88;;;12.10;99.90;;;;;;4979897;28;20030;-71
2021/11/01 00:32:39;;;;;;;7.00;1.08;;;12.00;99.90;;;;;;4978926;28;20015;-71
2021/11/01 00:35:07;;;;;;;5.18;1.10;;;12.00;99.90;;;;;;4979184;28;20059;-71
2021/11/01 00:37:35;;;;;;;11.15;1.23;;;12.00;99.90;;;;;;4961497;28;20058;-71
2021/11/01 00:40:03;;;;;;;8.20;1.17;;;11.90;99.90;;;;;;4978647;28;20053;-71
2021/11/01 00:42:31;;;;;;;6.32;1.15;;;11.90;99.90;;;;;;4958089;29;20131;-71
2021/11/01 00:44:59;;;;;;;8.18;1.30;;;11.90;99.90;;;;;;4958323;29;20027;-71
2021/11/01 00:47:27;;;;;;;6.18;1.27;;;11.90;99.90;;;;;;4958070;28;20511;-71
2021/11/01 00:49:55;;;;;;;7.28;1.38;;;11.90;99.90;;;;;;4958303;29;20031;-71
2021/11/01 00:52:26;;;;;;;11.10;1.20;;;11.80;99.90;;;;;;4959098;28;20415;-72
2021/11/01 00:55:00;;;;;;;7.57;1.67;;;11.80;99.90;;;;;;4958892;29;20054;-71
2021/11/01 00:57:28;;;;;;;5.43;0.98;;;11.80;99.90;;;;;;4960455;28;20027;-71
2021/11/01 00:59:57;;;;;;;9.70;1.02;;;11.80;99.90;;;;;;4960126;28;20074;-71
2021/11/01 01:02:26;;;;;;;9.98;2.17;;;11.80;99.90;;;;;;4960362;28;20024;-71
2021/11/01 01:04:53;;;;;;;8.70;1.67;;;11.80;99.90;;;;;;4959882;28;20046;-71
2021/11/01 01:07:21;;;;;;;8.25;1.35;;;11.80;99.90;;;;;;4959834;28;20072;-71
2021/11/01 01:09:49;;;;;;;7.63;1.15;;;11.80;99.90;;;;;;4960464;28;20027;-71
2021/11/01 01:12:17;;;;;;;6.90;1.63;;;11.80;99.90;;;;;;4959737;28;20027;-71
2021/11/01 01:14:51;;;;;;;6.47;1.88;;;11.70;99.90;;;;;;4959381;29;20023;-71
2021/11/01 01:17:21;;;;;;;11.77;2.05;;;11.70;99.90;;;;;;4959383;28;20051;-71
2021/11/01 01:20:04;;;;;;;6.57;1.67;;;11.70;99.90;;;;;;4958921;28;20106;-71
2021/11/01 01:22:32;;;;;;;10.90;2.30;;;11.70;99.90;;;;;;4959210;28;20075;-71
2021/11/01 01:25:05;;;;;;;8.93;2.15;;;11.70;99.90;;;;;;4958625;28;20090;-71
2021/11/01 01:27:32;;;;;;;21.60;7.13;;;11.70;99.90;;;;;;4958228;29;20036;-71
2021/11/01 01:30:01;;;;;;;12.43;2.45;;;11.60;99.90;;;;;;4957720;29;20023;-71
2021/11/01 01:32:28;;;;;;;29.67;8.63;;;11.60;99.90;;;;;;4958461;28;20015;-71
2021/11/01 01:34:56;;;;;;;40.33;12.13;;;11.60;99.90;;;;;;4957997;29;20058;-71
2021/11/01 01:37:24;;;;;;;20.08;5.03;;;11.60;99.90;;;;;;4959186;29;20376;-72
2021/11/01 01:39:51;;;;;;;13.93;2.58;;;11.50;99.90;;;;;;4959872;28;20029;-71
2021/11/01 01:42:18;;;;;;;9.98;2.38;;;11.50;99.90;;;;;;4976168;28;20126;-71
2021/11/01 01:44:46;;;;;;;11.25;1.88;;;11.50;99.90;;;;;;4979066;28;20380;-71
2021/11/01 01:47:14;;;;;;;5.05;1.17;;;11.50;99.90;;;;;;4978707;28;20027;-71
2021/11/01 01:49:42;;;;;;;8.70;1.40;;;11.40;99.90;;;;;;4979016;28;20022;-71
2021/11/01 01:52:09;;;;;;;9.55;1.45;;;11.40;99.90;;;;;;4979001;28;20426;-71
2021/11/01 01:54:37;;;;;;;8.75;1.45;;;11.30;99.90;;;;;;4961214;28;20435;-71
2021/11/01 01:57:05;;;;;;;6.57;1.15;;;11.30;99.90;;;;;;4960372;28;20027;-71
2021/11/01 01:59:32;;;;;;;12.02;1.67;;;11.30;99.90;;;;;;4977697;28;20026;-71
2021/11/01 02:02:00;;;;;;;13.85;1.67;;;11.20;99.90;;;;;;4977740;28;20073;-71
2021/11/01 02:04:29;;;;;;;12.52;1.20;;;11.10;99.90;;;;;;4977697;28;20323;-71
2021/11/01 02:07:12;;;;;;;9.73;1.60;;;11.10;99.90;;;;;;4977378;28;20031;-71
2021/11/01 02:10:06;;;;;;;8.80;1.40;;;11.00;99.90;;;;;;4977487;28;20046;-71
2021/11/01 02:12:57;;;;;;;6.70;0.95;;;11.00;99.90;;;;;;4977686;28;20027;-71
2021/11/01 02:15:41;;;;;;;14.50;2.17;;;11.00;99.90;;;;;;4977345;28;20038;-71
2021/11/01 02:18:11;;;;;;;6.70;1.50;;;11.00;99.90;;;;;;4960504;28;20308;-71
2021/11/01 02:20:55;;;;;;;12.18;2.33;;;10.90;99.90;;;;;;4978294;28;20031;-71
2021/11/01 02:23:33;;;;;;;13.98;2.80;;;10.90;99.90;;;;;;4978885;28;20128;-71
2021/11/01 02:26:03;;;;;;;7.45;1.27;;;10.80;99.90;;;;;;4961584;28;20034;-71
2021/11/01 02:28:37;;;;;;;6.63;1.00;;;10.80;99.90;;;;;;4978241;28;20023;-71
2021/11/01 02:31:10;;;;;;;12.77;1.63;;;10.70;99.90;;;;;;4979740;28;20384;-71
2021/11/01 02:33:38;;;;;;;13.15;1.30;;;10.60;99.90;;;;;;4964912;28;20030;-71
2021/11/01 02:36:06;;;;;;;9.77;1.23;;;10.60;99.90;;;;;;4982085;28;20034;-71
2021/11/01 02:38:33;;;;;;;9.20;2.30;;;10.50;99.90;;;;;;4981355;28;20023;-71
2021/11/01 02:41:22;;;;;;;9.30;1.40;;;10.50;99.90;;;;;;4980604;28;20047;-71
2021/11/01 02:43:57;;;;;;;10.13;1.65;;;10.40;99.90;;;;;;4980911;28;20046;-71
2021/11/01 02:46:27;;;;;;;11.77;1.58;;;10.40;99.90;;;;;;4963639;28;20035;-71
2021/11/01 02:48:55;;;;;;;6.55;1.00;;;10.40;99.90;;;;;;4980739;28;20118;-71
2021/11/01 02:51:26;;;;;;;6.93;1.50;;;10.40;99.90;;;;;;4980671;28;20023;-71
2021/11/01 02:53:54;;;;;;;11.55;1.40;;;10.40;99.90;;;;;;4981383;28;20077;-71
2021/11/01 02:56:21;;;;;;;10.05;1.05;;;10.40;99.90;;;;;;4980528;28;20023;-71
2021/11/01 02:58:49;;;;;;;11.48;1.63;;;10.40;99.90;;;;;;4981140;28;20029;-71
2021/11/01 03:01:21;;;;;;;8.07;1.20;;;10.40;99.90;;;;;;4981440;28;20026;-71
2021/11/01 03:03:49;;;;;;;11.13;2.33;;;10.50;99.90;;;;;;4981837;28;20023;-71
2021/11/01 03:06:24;;;;;;;9.25;1.90;;;10.50;99.90;;;;;;4964307;28;20031;-71
2021/11/01 03:08:53;;;;;;;10.57;2.13;;;10.50;99.90;;;;;;4981892;28;20027;-71
2021/11/01 03:11:23;;;;;;;9.45;1.30;;;10.50;99.90;;;;;;4981297;28;20327;-71
2021/11/01 03:13:50;;;;;;;11.63;1.50;;;10.50;99.90;;;;;;4964057;28;20439;-71
2021/11/01 03:16:20;;;;;;;11.95;2.53;;;10.50;99.90;;;;;;4981138;28;20029;-71
2021/11/01 03:19:06;;;;;;;15.15;2.45;;;10.50;99.90;;;;;;4981339;28;20030;-71
2021/11/01 03:21:38;;;;;;;8.75;2.22;;;10.50;99.90;;;;;;4980293;28;20027;-71
2021/11/01 03:24:08;;;;;;;9.93;2.30;;;10.50;99.90;;;;;;4980100;28;20023;-71
2021/11/01 03:26:36;;;;;;;11.45;2.40;;;10.60;99.90;;;;;;4980045;28;20034;-71
2021/11/01 03:29:06;;;;;;;12.25;1.83;;;10.60;99.90;;;;;;4980424;28;20030;-71
2021/11/01 03:31:34;;;;;;;11.95;1.83;;;10.60;99.90;;;;;;4979979;28;20027;-71
2021/11/01 03:34:02;;;;;;;11.00;1.92;;;10.60;99.90;;;;;;4962709;28;20030;-71
2021/11/01 03:36:31;;;;;;;10.00;3.15;;;10.60;99.90;;;;;;4979808;28;20031;-71
2021/11/01 03:39:01;;;;;;;19.08;3.00;;;10.60;99.90;;;;;;4980583;28;20434;-71
2021/11/01 03:41:30;;;;;;;10.88;1.90;;;10.60;99.90;;;;;;4958808;28;20499;-71
2021/11/01 03:44:04;;;;;;;10.52;1.40;;;10.60;99.90;;;;;;4961061;28;20029;-71
2021/11/01 03:46:45;;;;;;;10.68;1.95;;;10.50;99.90;;;;;;4961247;28;20036;-71
2021/11/01 03:49:14;;;;;;;7.55;1.70;;;10.60;99.90;;;;;;4961470;28;20082;-70
2021/11/01 03:54:31;;;;;;;17.42;2.08;;;10.60;99.90;;;;;;4961470;29;20050;-71
2021/11/01 03:56:59;;;;;;;9.95;2.20;;;10.60;99.90;;;;;;4961596;29;20078;-71
2021/11/01 03:59:30;;;;;;;11.80;1.60;;;10.60;99.90;;;;;;4961252;28;20045;-71
2021/11/01 04:01:58;;;;;;;9.15;1.95;;;10.60;99.90;;;;;;4959908;28;20324;-71
2021/11/01 04:04:25;;;;;;;8.02;2.17;;;10.60;99.90;;;;;;4960264;28;20083;-71
2021/11/01 04:06:52;;;;;;;13.38;2.10;;;10.60;99.90;;;;;;4960042;28;20031;-71
2021/11/01 04:09:20;;;;;;;6.75;1.75;;;10.60;99.90;;;;;;4960195;28;20030;-71
2021/11/01 04:11:51;;;;;;;15.13;1.90;;;10.60;99.90;;;;;;4960531;28;20031;-71
2021/11/01 04:14:25;;;;;;;8.70;1.55;;;10.50;99.90;;;;;;4959924;28;20020;-71
2021/11/01 04:17:03;;;;;;;7.90;2.00;;;10.50;99.90;;;;;;4959717;28;20031;-71
2021/11/01 04:19:37;;;;;;;10.93;2.65;;;10.50;99.90;;;;;;4958884;29;20078;-71
2021/11/01 04:22:05;;;;;;;7.72;1.17;;;10.60;99.90;;;;;;4959685;28;20438;-71
2021/11/01 04:24:32;;;;;;;15.88;2.45;;;10.60;99.90;;;;;;4959682;28;20031;-71
2021/11/01 04:27:09;;;;;;;10.70;2.45;;;10.60;99.90;;;;;;4960238;28;20055;-71
2021/11/01 04:29:37;;;;;;;5.88;1.30;;;10.60;99.90;;;;;;4959452;29;20332;-71
2021/11/01 04:32:23;;;;;;;14.50;2.47;;;10.70;99.90;;;;;;4960357;28;20062;-71
2021/11/01 04:34:59;;;;;;;5.90;1.58;;;10.70;99.90;;;;;;4960851;28;20039;-71
2021/11/01 04:37:29;;;;;;;12.90;2.42;;;10.70;99.90;;;;;;4961069;28;20114;-71
2021/11/01 04:40:16;;;;;;;11.85;2.10;;;10.70;99.90;;;;;;4960851;28;20329;-71
2021/11/01 04:53:28;;;;;;;11.00;1.17;;;10.50;99.90;;;;;;4977954;28;20082;-71
2021/11/01 04:55:56;;;;;;;9.20;1.52;;;10.50;99.90;;;;;;4961224;28;20309;-71
2021/11/01 04:58:23;;;;;;;10.93;1.88;;;10.50;99.90;;;;;;4978891;28;20055;-71
2021/11/01 05:00:52;;;;;;;14.00;2.60;;;10.40;99.90;;;;;;4978351;28;20019;-71
2021/11/01 05:03:34;;;;;;;8.20;1.27;;;10.40;99.90;;;;;;4978582;28;20018;-71
2021/11/01 05:06:02;;;;;;;10.77;1.83;;;10.50;99.90;;;;;;4978186;28;20050;-71
2021/11/01 05:08:39;;;;;;;7.25;1.35;;;10.40;99.90;;;;;;4978270;28;20109;-72
2021/11/01 05:11:16;;;;;;;11.93;2.97;;;10.40;99.90;;;;;;4979485;28;20147;-71
2021/11/01 05:13:45;;;;;;;5.35;1.02;;;10.40;99.90;;;;;;4979197;28;20023;-71
2021/11/01 05:16:31;;;;;;;13.60;2.10;;;10.50;99.90;;;;;;4961737;28;20316;-71
2021/11/01 05:21:58;;;;;;;8.57;1.65;;;10.40;99.90;;;;;;4978929;28;20511;-71
2021/11/01 05:24:42;;;;;;;8.07;1.48;;;10.40;99.90;;;;;;4979026;28;20037;-71
2021/11/01 05:29:48;;;;;;;7.20;0.90;;;10.40;99.90;;;;;;4978414;28;20105;-71
2021/11/01 05:32:22;;;;;;;5.90;1.50;;;10.40;99.90;;;;;;4977741;28;20034;-71
2021/11/01 05:34:50;;;;;;;11.48;1.85;;;10.40;99.90;;;;;;4977863;28;20105;-71
2021/11/01 05:37:17;;;;;;;13.35;1.70;;;10.40;99.90;;;;;;4960557;28;20404;-71
2021/11/01 05:39:45;;;;;;;8.75;1.52;;;10.40;99.90;;;;;;4960607;28;20093;-71
2021/11/01 05:42:12;;;;;;;9.35;1.35;;;10.40;99.90;;;;;;4956775;29;20047;-71
2021/11/01 05:44:40;;;;;;;7.32;0.98;;;10.40;99.90;;;;;;4959148;28;20034;-71
2021/11/01 05:47:09;;;;;;;8.90;1.30;;;10.40;99.90;;;;;;4958323;28;20027;-71
2021/11/01 05:49:38;;;;;;;7.68;1.38;;;10.40;99.90;;;;;;4958516;28;20335;-71
2021/11/01 05:52:15;;;;;;;5.00;1.17;;;10.40;99.90;;;;;;4959188;28;20023;-71
2021/11/01 05:54:44;;;;;;;24.75;2.30;;;10.40;99.90;;;;;;4959138;28;20035;-71
2021/11/01 05:57:41;;;;;;;11.45;1.50;;;10.40;99.90;;;;;;4958804;29;20034;-71
2021/11/01 06:02:50;;;;;;;8.43;1.35;;;10.40;99.90;;;;;;4959169;28;20434;-71
2021/11/01 06:05:26;;;;;;;12.88;1.88;;;10.30;99.90;;;;;;4961174;28;20021;-71
2021/11/01 06:08:22;;;;;;;2.88;0.60;;;10.40;99.90;;;;;;4963353;29;20054;-71
2021/11/01 06:15:54;;;;;;;8.45;1.58;;;10.30;99.90;;;;;;4961983;28;20054;-71
2021/11/01 06:18:26;;;;;;;8.48;1.92;;;10.30;99.90;;;;;;4962343;28;20019;-72
2021/11/01 06:20:54;;;;;;;11.02;1.90;;;10.30;99.90;;;;;;4962186;28;20328;-71
2021/11/01 06:23:23;;;;;;;7.95;1.30;;;10.30;99.90;;;;;;4961951;28;20019;-71
2021/11/01 06:25:51;;;;;;;11.88;1.08;;;10.20;99.90;;;;;;4960839;29;20031;-71
2021/11/01 06:28:23;;;;;;;10.38;1.55;;;10.20;99.90;;;;;;4961892;28;20432;-72
2021/11/01 06:30:55;;;;;;;7.65;1.50;;;10.10;99.90;;;;;;4960678;29;20035;-71
2021/11/01 06:41:42;;;;;;;14.32;1.40;;;10.00;99.90;;;;;;4971719;28;20109;-70
2021/11/01 06:44:25;;;;;;;8.47;1.23;;;10.00;99.90;;;;;;4981675;28;20051;-70
2021/11/01 06:49:48;;;;;;;4.20;1.20;;;10.00;99.90;;;;;;4981721;28;20030;-71
2021/11/01 06:55:16;;;;;;;11.57;1.00;;;10.10;99.90;;;;;;4980694;28;20090;-71
2021/11/01 06:58:02;;;;;;;5.60;1.42;;;10.20;99.90;;;;;;4980588;28;20061;-71
2021/11/01 07:14:30;;;;;;;5.43;1.10;;;10.30;99.90;;;;;;4980536;28;20034;-75
2021/11/01 07:17:07;;;;;;;8.60;1.00;;;10.30;99.90;;;;;;4980271;28;20031;-72
2021/11/01 07:22:24;;;;;;;8.95;1.08;;;10.40;99.90;;;;;;4981066;28;20034;-73
2021/11/01 07:38:00;;;;;;;14.20;1.47;;;10.40;99.90;;;;;;4981016;28;20482;-73
2021/11/01 08:28:10;;;;;;;6.75;1.00;;;11.10;99.90;;;;;;4978212;28;20062;-70
2021/11/01 08:50:26;;;;;;;4.88;1.50;;;10.70;99.90;;;;;;4979856;28;20446;-69
2021/11/01 09:01:41;;;;;;;6.35;1.80;;;10.70;99.90;;;;;;4978386;28;20081;-69
2021/11/01 09:04:37;;;;;;;5.70;1.00;;;10.70;99.90;;;;;;4978117;28;20039;-69
2021/11/01 09:10:04;;;;;;;6.25;1.92;;;10.60;99.90;;;;;;4978351;28;20378;-69
2021/11/01 09:23:36;;;;;;;11.00;2.15;;;10.80;99.90;;;;;;4979119;28;20019;-69
2021/11/01 09:26:10;;;;;;;6.50;1.00;;;11.00;99.90;;;;;;4978485;28;20054;-69
2021/11/01 09:39:31;;;;;;;5.82;1.10;;;12.00;99.90;;;;;;4978371;28;20122;-70
2021/11/01 09:42:01;;;;;;;6.65;1.33;;;12.10;99.90;;;;;;4977751;28;20503;-69
2021/11/01 09:44:31;;;;;;;4.45;0.80;;;12.30;99.90;;;;;;4977942;28;20019;-72
2021/11/01 09:47:04;;;;;;;6.25;1.00;;;12.40;99.90;;;;;;4977824;28;20027;-69
2021/11/01 09:49:34;;;;;;;4.22;1.00;;;12.50;99.90;;;;;;4977490;28;20097;-69
2021/11/01 09:52:07;;;;;;;6.18;0.90;;;12.60;99.90;;;;;;4978051;28;20110;-69
2021/11/01 09:54:37;;;;;;;7.53;1.13;;;12.70;99.90;;;;;;4978546;28;20391;-68
2021/11/01 09:57:19;;;;;;;3.97;0.70;;;12.80;99.90;;;;;;4978059;28;20031;-74
2021/11/01 09:59:47;;;;;;;4.70;0.80;;;12.80;99.90;;;;;;4960368;28;20023;-77
2021/11/01 10:02:18;;;;;;;3.72;0.80;;;12.90;99.90;;;;;;4977769;28;20033;-79
2021/11/01 10:04:52;;;;;;;4.55;0.80;;;13.00;99.90;;;;;;4978449;28;20029;-78
2021/11/01 10:07:34;;;;;;;9.30;1.00;;;13.10;99.90;;;;;;4978413;28;20027;-79
2021/11/01 10:10:11;;;;;;;3.40;1.08;;;13.20;99.90;;;;;;4961294;28;20359;-79
2021/11/01 10:12:43;;;;;;;6.68;1.40;;;13.20;99.90;;;;;;4961278;28;20023;-77
2021/11/01 10:18:14;;;;;;;2.95;1.05;;;13.20;99.90;;;;;;4978503;28;20034;-79
2021/11/01 10:20:49;;;;;;;4.75;0.85;;;13.20;99.90;;;;;;4978601;28;20019;-78
2021/11/01 10:23:28;;;;;;;3.25;1.23;;;13.20;99.90;;;;;;4978309;28;20023;-79
2021/11/01 10:26:15;;;;;;;4.78;1.15;;;13.20;99.90;;;;;;4960176;28;20035;-78
2021/11/01 10:28:52;;;;;;;6.55;0.75;;;13.20;99.90;;;;;;4960134;28;20379;-76
2021/11/01 10:31:22;;;;;;;8.27;0.90;;;13.20;99.90;;;;;;4977549;28;20029;-75
2021/11/01 10:33:51;;;;;;;5.90;0.70;;;13.20;99.90;;;;;;4977203;28;20027;-77
2021/11/01 10:36:38;;;;;;;5.20;1.15;;;13.30;99.90;;;;;;4977252;28;20022;-78
2021/11/01 10:39:09;;;;;;;7.70;1.33;;;13.20;99.90;;;;;;4960038;28;20312;-76
2021/11/01 10:42:20;;;;;;;5.15;1.48;;;13.10;99.90;;;;;;4956341;29;20461;-78
2021/11/01 10:58:59;;;;;;;3.10;0.50;;;13.10;99.90;;;;;;4962756;29;20336;-79
2021/11/01 11:12:37;;;;;;;5.22;1.02;;;12.60;99.90;;;;;;4961327;29;20111;-79
2021/11/01 11:15:13;;;;;;;7.50;1.00;;;12.50;99.90;;;;;;4959907;29;20427;-77
2021/11/01 11:18:00;;;;;;;1.95;0.40;;;12.60;99.90;;;;;;4961041;28;20102;-78
2021/11/01 11:26:19;;;;;;;2.28;0.50;;;12.90;99.90;;;;;;4961232;28;20035;-78
2021/11/01 11:38:15;;;;;;;8.13;1.40;;;13.50;99.90;;;;;;4961514;29;20078;-80
2021/11/01 11:42:14;;;;;;;7.07;0.63;;;13.70;99.90;;;;;;4964460;28;20043;-78
2021/11/01 11:47:23;;;;;;;4.78;0.68;;;13.90;99.90;;;;;;4928209;28;20079;-80
2021/11/01 11:49:54;;;;;;;10.10;1.02;;;13.90;99.90;;;;;;4980146;28;20058;-79
2021/11/01 11:52:24;;;;;;;9.27;1.38;;;13.90;99.90;;;;;;4962416;28;20105;-76
2021/11/01 11:54:59;;;;;;;4.38;0.57;;;14.00;99.90;;;;;;4980415;28;20311;-78
2021/11/01 11:57:35;;;;;;;6.43;0.73;;;14.10;99.90;;;;;;4979568;28;20031;-78
2021/11/01 12:00:11;;;;;;;8.55;1.10;;;14.10;99.90;;;;;;4979572;28;20027;-77
2021/11/01 12:02:42;;;;;;;5.28;0.63;;;14.10;99.90;;;;;;4979259;28;20019;-78
2021/11/01 12:05:13;;;;;;;3.22;0.65;;;14.10;99.80;;;;;;4979663;28;20026;-77
2021/11/01 12:07:52;;;;;;;4.88;0.85;;;14.10;99.80;;;;;;4979704;28;20047;-78
2021/11/01 12:18:58;;;;;;;3.85;0.77;;;14.20;99.90;;;;;;4980316;28;20050;-79
2021/11/01 12:21:27;;;;;;;6.03;1.27;;;14.30;99.90;;;;;;4980016;28;20106;-80
2021/11/01 12:23:56;;;;;;;3.83;1.08;;;14.20;99.90;;;;;;4979967;28;20435;-76
2021/11/01 12:26:26;;;;;;;4.57;0.75;;;14.20;99.90;;;;;;4979915;28;20090;-77
2021/11/01 12:28:59;;;;;;;3.50;0.57;;;14.20;99.90;;;;;;4962872;28;20105;-80
2021/11/01 12:31:29;;;;;;;3.45;0.50;;;14.10;99.90;;;;;;4979202;28;20034;-78
2021/11/01 12:34:06;;;;;;;6.32;1.02;;;13.90;99.90;;;;;;4961611;28;20058;-76
2021/11/01 12:36:57;;;;;;;5.03;1.08;;;13.80;99.90;;;;;;4979236;28;20416;-80
2021/11/01 12:39:35;;;;;;;4.00;1.58;;;13.60;99.90;;;;;;4979026;28;20027;-77
2021/11/01 12:45:37;;;;;;;5.50;0.77;;;13.50;99.90;;;;;;4980869;28;20051;-81
2021/11/01 12:58:44;;;;;;;4.78;0.57;;;13.50;97.80;;;;;;4979789;28;20218;-77
2021/11/01 13:01:15;;;;;;;3.25;0.50;;;13.50;97.70;;;;;;4979291;28;20023;-79
2021/11/01 13:04:34;;;;;;;0.65;0.25;;;13.60;98.50;;;;;;4979293;28;20054;-78
2021/11/01 13:09:41;;;;;;;4.70;0.68;;;13.50;97.80;;;;;;4979206;28;20023;-78
2021/11/01 13:12:27;;;;;;;3.22;0.93;;;13.50;98.20;;;;;;4961375;28;20054;-80
2021/11/01 13:15:05;;;;;;;5.10;0.60;;;13.50;97.90;;;;;;4977043;28;20031;-78
2021/11/01 13:20:22;;;;;;;3.65;0.70;;;13.50;99.00;;;;;;4978397;28;20358;-78
2021/11/01 13:22:57;;;;;;;2.75;0.50;;;13.40;98.30;;;;;;4960702;28;20332;-78
2021/11/01 13:25:39;;;;;;;3.42;0.40;;;13.40;98.40;;;;;;4960641;28;20087;-78
2021/11/01 13:28:45;;;;;;;3.80;0.77;;;13.30;98.80;;;;;;4978123;28;20027;-78
2021/11/01 13:37:15;;;;;;;2.33;0.68;;;13.70;98.20;;;;;;4978704;28;20029;-78
2021/11/01 13:39:44;;;;;;;2.90;1.40;;;13.60;97.00;;;;;;4979116;28;20030;-78
2021/11/01 13:42:15;;;;;;;4.32;0.40;;;13.60;96.60;;;;;;4978430;28;20396;-78
2021/11/01 13:44:43;;;;;;;3.65;0.70;;;13.50;97.10;;;;;;4979172;28;20444;-78
2021/11/01 13:47:14;;;;;;;3.08;0.50;;;13.60;97.50;;;;;;4979039;28;20018;-78
2021/11/01 13:49:46;;;;;;;1.25;0.30;;;13.60;97.40;;;;;;4978966;28;20031;-78
2021/11/01 13:55:05;;;;;;;2.30;0.47;;;13.90;95.30;;;;;;4978147;28;20034;-78
2021/11/01 13:57:44;;;;;;;3.75;0.50;;;13.90;96.10;;;;;;4977699;28;20090;-78
2021/11/01 14:00:25;;;;;;;3.95;0.50;;;13.70;96.50;;;;;;4977682;28;20030;-78
2021/11/01 14:03:11;;;;;;;4.53;0.63;;;13.40;96.40;;;;;;4977768;28;20022;-78
2021/11/01 14:16:26;;;;;;;6.03;0.70;;;13.00;98.80;;;;;;4977774;28;20023;-78
2021/11/01 14:19:12;;;;;;;4.18;0.57;;;13.00;99.60;;;;;;4978339;28;20042;-78
2021/11/01 14:27:42;;;;;;;2.60;0.43;;;13.00;98.70;;;;;;4982207;28;20101;-79
2021/11/01 14:30:38;;;;;;;1.70;0.30;;;13.00;98.90;;;;;;4965183;28;20134;-79
2021/11/01 15:03:57;;;;;;;5.85;1.08;;;13.20;99.10;;;;;;4981795;28;20300;-78
2021/11/01 15:06:48;;;;;;;4.20;0.63;;;13.10;98.60;;;;;;4981181;28;20077;-76
2021/11/01 15:10:05;;;;;;;5.63;1.00;;;13.10;98.10;;;;;;4981134;28;20018;-76
2021/11/01 15:13:07;;;;;;;5.60;0.55;;;13.00;98.90;;;;;;4968241;28;20066;-78
2021/11/01 15:15:04;;;;;;;2.80;0.40;;;12.80;99.80;;;;;;4968409;28;20045;-77
2021/11/01 15:17:49;;;;;;;3.30;0.60;;;12.70;99.90;;;;;;4963831;28;20027;-77
2021/11/01 15:22:58;;;;;;;2.17;0.68;;;12.50;99.90;;;;;;4980251;28;20023;-77
2021/11/01 15:41:51;;;;;;;3.25;0.50;;;12.00;99.90;;;;;;4979973;28;20054;-77
2021/11/01 16:19:51;;;;;;;4.28;0.57;;;11.40;99.90;;;;;;4979615;28;20090;-78
2021/11/01 16:22:20;;;;;;;4.03;0.90;;;11.40;99.90;;;;;;4979039;28;20423;-78
2021/11/01 16:24:48;;;;;;;2.42;0.47;;;11.30;99.90;;;;;;4979734;28;20027;-78
2021/11/01 16:27:19;;;;;;;2.45;0.52;;;11.20;99.90;;;;;;4980396;28;20027;-78
2021/11/01 16:29:58;;;;;;;7.53;1.48;;;11.10;99.90;;;;;;4962746;28;20120;-78
2021/11/01 16:32:38;;;;;;;4.05;0.65;;;10.90;99.90;;;;;;4979642;28;20018;-78
2021/11/01 16:35:09;;;;;;;3.80;0.65;;;10.80;99.90;;;;;;4979754;28;20034;-78
2021/11/01 16:37:52;;;;;;;2.72;0.60;;;10.60;99.90;;;;;;4979599;28;20423;-78
2021/11/01 16:40:22;;;;;;;3.38;0.82;;;10.50;99.90;;;;;;4979766;28;20026;-78
2021/11/01 16:42:49;;;;;;;2.25;0.43;;;10.40;99.90;;;;;;4979589;28;20042;-78
2021/11/01 16:45:27;;;;;;;1.98;0.68;;;10.30;99.90;;;;;;4961393;28;20026;-78
2021/11/01 16:48:01;;;;;;;2.38;0.93;;;10.20;99.90;;;;;;4978481;28;20324;-78
2021/11/01 16:50:29;;;;;;;3.35;0.52;;;10.10;99.90;;;;;;4960550;28;20434;-78
2021/11/01 16:52:56;;;;;;;3.38;1.63;;;9.90;99.90;;;;;;4961316;28;20026;-78
2021/11/01 16:55:29;;;;;;;4.82;1.05;;;9.80;99.90;;;;;;4961205;28;20038;-78
2021/11/01 16:58:14;;;;;;;3.38;1.50;;;9.70;99.90;;;;;;4978621;28;20431;-78
2021/11/01 17:00:51;;;;;;;4.90;1.23;;;9.50;99.90;;;;;;4978352;28;20442;-78
2021/11/01 17:03:32;;;;;;;3.90;1.10;;;9.40;99.90;;;;;;4978557;28;20157;-78
2021/11/01 17:21:16;;;;;;;19.77;10.75;;;9.10;99.90;;;;;;4979144;28;20079;-78
2021/11/01 17:22:22;;;;;;;2.78;1.00;;;8.70;99.90;;;;;;4979106;28;20080;-78
2021/11/01 17:24:59;;;;;;;7.90;2.10;;;8.60;99.90;;;;;;4979240;28;20055;-78
2021/11/01 17:30:39;;;;;;;4.75;1.20;;;8.40;99.90;;;;;;4978131;28;20054;-78
2021/11/01 17:36:29;;;;;;;7.60;2.08;;;8.20;99.90;;;;;;4945099;28;20035;-77
2021/11/01 18:51:35;;;;;;;5.80;1.63;;;9.10;99.90;;;;;;4984153;28;20029;-78
2021/11/01 18:54:18;;;;;;;6.95;1.48;;;9.40;99.90;;;;;;4983835;28;20077;-78
2021/11/01 18:56:47;;;;;;;7.05;1.73;;;9.60;99.90;;;;;;4983419;28;20318;-80
2021/11/01 19:02:38;;;;;;;7.50;1.67;;;9.80;99.90;;;;;;4983322;28;20323;-78
2021/11/01 20:04:15;;;;;;;9.70;2.50;;;9.80;99.90;;;;;;4980688;28;20450;-78
2021/11/01 21:26:16;;;;;;;6.70;1.75;;;8.60;99.90;;;;;;4940804;29;20028;-77
2021/11/01 21:28:44;;;;;;;6.47;1.80;;;8.50;99.90;;;;;;4940447;29;20024;-77
2021/11/01 21:31:12;;;;;;;11.88;2.10;;;8.50;99.90;;;;;;4939394;29;20047;-78
2021/11/01 21:33:46;;;;;;;7.32;2.10;;;8.50;99.90;;;;;;4940565;29;20083;-78
2021/11/01 21:36:23;;;;;;;12.30;3.15;;;8.50;99.90;;;;;;4939730;29;20046;-77
2021/11/01 21:38:53;;;;;;;5.53;2.00;;;8.50;99.90;;;;;;4939882;29;20023;-77
2021/11/01 21:41:21;;;;;;;8.07;2.58;;;8.50;99.90;;;;;;4949547;28;20134;-77
2021/11/01 21:43:49;;;;;;;4.20;1.40;;;8.40;99.90;;;;;;4977808;28;20022;-78
2021/11/01 21:46:16;;;;;;;8.13;2.63;;;8.40;99.90;;;;;;4960602;28;20030;-77
2021/11/01 21:48:44;;;;;;;6.78;2.53;;;8.30;99.90;;;;;;4978338;28;20098;-78
2021/11/01 21:51:15;;;;;;;5.50;1.73;;;8.30;99.90;;;;;;4978205;28;20110;-77
2021/11/01 21:54:00;;;;;;;7.15;1.80;;;8.20;99.90;;;;;;4960547;28;20138;-78
2021/11/01 21:56:31;;;;;;;5.57;1.58;;;8.10;99.90;;;;;;4960367;28;20031;-77
2021/11/01 22:16:41;;;;;;;5.03;1.73;;;7.70;99.90;;;;;;4978705;28;20038;-77
2021/11/01 22:21:34;;;;;;;7.07;2.75;;;7.60;99.90;;;;;;4947556;28;20039;-78
2021/11/01 22:32:09;;;;;;;8.27;2.53;;;7.40;99.90;;;;;;4918147;29;20024;-78
2021/11/01 22:33:06;;;;;;;6.93;2.10;;;7.40;99.90;;;;;;4977448;28;20034;-77
2021/11/01 22:39:05;;;;;;;7.57;2.70;;;7.30;99.90;;;;;;4977403;28;20094;-77
2021/11/01 22:41:19;;;;;;;7.35;2.60;;;7.30;99.90;;;;;;4966236;28;20039;-78
2021/11/01 22:44:32;;;;;;;4.70;2.10;;;7.20;99.90;;;;;;4977601;28;20019;-77
2021/11/01 22:46:58;;;;;;;5.25;2.15;;;7.20;99.90;;;;;;4975727;28;20035;-77
2021/11/01 22:57:45;;;;;;;8.23;2.47;;;6.90;99.90;;;;;;4981694;28;20061;-77
2021/11/01 23:00:19;;;;;;;10.18;3.38;;;6.80;99.90;;;;;;4964529;28;20023;-77
2021/11/01 23:02:55;;;;;;;5.85;2.60;;;6.70;99.90;;;;;;4981345;28;20415;-77
2021/11/01 23:05:58;;;;;;;11.57;3.35;;;6.70;99.90;;;;;;4980533;28;20339;-77
2021/11/01 23:33:32;;;;;;;11.88;4.82;;;6.10;99.90;;;;;;4981227;28;20118;-77
2021/11/01 23:36:00;;;;;;;14.75;4.65;;;6.00;99.90;;;;;;4981466;28;20319;-77
2021/11/01 23:38:27;;;;;;;9.85;4.60;;;6.00;99.90;;;;;;4981271;28;20062;-77
2021/11/01 23:40:55;;;;;;;11.25;5.60;;;6.00;99.90;;;;;;4980788;28;20058;-77
2021/11/01 23:43:22;;;;;;;18.20;5.38;;;6.00;99.90;;;;;;4980810;28;20081;-77
2021/11/01 23:45:50;;;;;;;15.45;4.78;;;6.10;99.90;;;;;;4980611;28;20487;-77
2021/11/01 23:48:18;;;;;;;10.57;4.35;;;6.10;99.90;;;;;;4962547;28;20034;-77
2021/11/01 23:50:49;;;;;;;12.93;5.18;;;6.20;99.90;;;;;;4979734;28;20050;-77
2021/11/01 23:56:08;;;;;;;16.08;4.80;;;6.20;99.90;;;;;;4979615;28;20505;-77
2021/11/01 23:58:37;;;;;;;9.00;4.15;;;6.20;99.90;;;;;;4979200;28;20023;-77
